Time;durP1;ratioP1;P1;durP2;ratioP2;P2;SDS_P1;SDS_P2;PMS_P1;PMS_P2;Temp;Humidity;BMP_temperature;BMP_pressure;BME280_temperature;BME280_humidity;BME280_pressure;Samples;Min_cycle;Max_cycle;Signal;HPM_P1;HPM_P2
2021/12/24 00:01:09;;;;;;;21.25;11.88;;;;;;;-1.65;69.14;95986.27;1693640;83;25260;-82
2021/12/24 00:03:37;;;;;;;27.87;14.30;;;;;;;-1.65;69.05;95981.47;1693421;83;25756;-83
2021/12/24 00:06:05;;;;;;;27.55;13.45;;;;;;;-1.67;69.38;95976.34;1693183;83;25754;-83
2021/12/24 00:08:33;;;;;;;23.15;12.55;;;;;;;-1.68;69.47;95977.84;1693541;83;25693;-84
2021/12/24 00:11:02;;;;;;;22.25;12.23;;;;;;;-1.69;69.62;95970.39;1718910;82;27424;-82
2021/12/24 00:13:34;;;;;;;22.35;12.50;;;;;;;-1.70;69.77;95972.73;1708312;82;25768;-84
2021/12/24 00:18:41;;;;;;;;;;;;;;;-1.76;70.13;95980.02;1736403;81;26522;-83
2021/12/24 00:22:09;;;;;;;25.43;11.88;;;;;;;-1.75;70.44;95976.87;1737054;81;25701;-82
2021/12/24 00:37:26;;;;;;;22.20;13.62;;;;;;;-1.81;71.59;95950.09;1708269;82;27551;-83
2021/12/24 00:40:05;;;;;;;23.10;13.13;;;;;;;-1.84;71.83;95950.95;1708498;82;25755;-83
2021/12/24 00:42:21;;;;;;;23.40;12.63;;;;;;;-1.82;72.27;95952.45;1706482;82;25747;-83
2021/12/24 00:44:48;;;;;;;20.92;11.55;;;;;;;-1.79;72.34;95951.75;1726469;81;25722;-83
2021/12/24 00:47:15;;;;;;;19.50;12.33;;;;;;;-1.81;72.10;95958.03;1738073;81;25754;-83
2021/12/24 00:49:43;;;;;;;20.15;11.68;;;;;;;-1.82;72.64;95945.00;1737847;81;27439;-82
2021/12/24 00:52:33;;;;;;;24.43;12.78;;;;;;;-1.83;72.40;95938.89;1738196;81;25775;-81
2021/12/24 00:55:09;;;;;;;21.35;11.53;;;;;;;-1.86;72.67;95939.22;1735649;81;25774;-83
2021/12/24 00:57:40;;;;;;;23.42;11.88;;;;;;;-1.90;72.92;95931.29;1738203;81;25787;-81
2021/12/24 01:00:15;;;;;;;20.92;12.35;;;;;;;-1.95;72.91;95920.41;1737862;81;25777;-81
2021/12/24 01:02:42;;;;;;;22.10;12.93;;;;;;;-1.98;73.06;95920.75;1733901;81;28215;-80
2021/12/24 01:05:11;;;;;;;19.75;11.78;;;;;;;-1.99;73.07;95919.09;1738078;81;25849;-82
2021/12/24 01:07:39;;;;;;;21.45;12.40;;;;;;;-2.06;73.02;95919.45;1738150;81;25753;-82
2021/12/24 01:10:07;;;;;;;21.30;12.58;;;;;;;-2.11;73.14;95904.59;1738184;81;25698;-84
2021/12/24 01:12:35;;;;;;;25.75;14.38;;;;;;;-2.11;73.30;95909.88;1738179;81;25856;-81
2021/12/24 01:15:05;;;;;;;22.70;12.85;;;;;;;-2.14;73.51;95906.23;1738099;81;27438;-82
2021/12/24 01:17:39;;;;;;;22.77;13.13;;;;;;;-2.15;73.47;95894.02;1738109;81;25830;-83
2021/12/24 01:20:10;;;;;;;19.65;12.60;;;;;;;-2.14;73.81;95900.95;1737238;81;25757;-83
2021/12/24 01:23:09;;;;;;;23.52;13.58;;;;;;;-2.14;73.83;95895.66;1737447;81;26407;-81
2021/12/24 01:26:04;;;;;;;27.52;14.85;;;;;;;-2.10;74.04;95893.02;1734285;81;25777;-81
2021/12/24 01:28:03;;;;;;;22.35;12.43;;;;;;;-2.10;74.12;95891.70;1717805;81;27628;-82
2021/12/24 01:38:32;;;;;;;25.85;15.65;;;;;;;-2.15;74.20;95870.22;1708416;82;25742;-82
2021/12/24 01:41:04;;;;;;;26.55;13.75;;;;;;;-2.20;73.99;95864.64;1734409;81;27394;-82
2021/12/24 01:43:21;;;;;;;22.45;13.80;;;;;;;-2.23;73.82;95867.61;1735967;81;25790;-81
2021/12/24 01:45:52;;;;;;;23.73;14.58;;;;;;;-2.25;73.83;95859.02;1719236;81;25907;-82
2021/12/24 01:48:19;;;;;;;22.00;13.22;;;;;;;-2.25;73.91;95849.77;1710978;82;25680;-81
2021/12/24 01:50:47;;;;;;;21.80;13.30;;;;;;;-2.23;73.90;95859.69;1711001;82;25706;-80
2021/12/24 01:53:18;;;;;;;20.85;13.08;;;;;;;-2.24;73.89;95845.64;1711001;82;28199;-82
2021/12/24 01:55:50;;;;;;;25.15;13.43;;;;;;;-2.23;73.92;95835.89;1710899;82;25806;-81
2021/12/24 01:58:26;;;;;;;25.23;14.60;;;;;;;-2.20;74.07;95835.56;1715178;81;25736;-82
2021/12/24 02:00:56;;;;;;;23.52;13.78;;;;;;;-2.19;73.96;95829.28;1740424;80;25880;-80
2021/12/24 02:03:23;;;;;;;23.55;13.30;;;;;;;-2.17;73.99;95825.15;1744537;81;25773;-81
2021/12/24 02:05:50;;;;;;;22.93;13.20;;;;;;;-2.17;74.22;95819.34;1744536;81;27350;-82
2021/12/24 02:08:17;;;;;;;22.85;13.72;;;;;;;-2.14;74.15;95815.53;1744452;81;25825;-81
2021/12/24 02:10:46;;;;;;;24.45;13.45;;;;;;;-2.12;74.22;95815.69;1744508;81;25714;-82
2021/12/24 02:13:14;;;;;;;22.82;13.05;;;;;;;-2.09;74.35;95810.07;1726601;82;25913;-83
2021/12/24 02:29:37;;;;;;;23.50;13.70;;;;;;;-1.97;74.67;95770.34;1719241;82;25877;-81
2021/12/24 02:32:05;;;;;;;20.88;12.28;;;;;;;-1.94;74.96;95771.33;1739768;80;27364;-81
2021/12/24 02:34:31;;;;;;;22.85;14.40;;;;;;;-1.93;74.94;95767.66;1748913;80;25716;-81
2021/12/24 02:36:58;;;;;;;25.05;14.25;;;;;;;-1.93;75.03;95770.30;1744398;80;25740;-81
2021/12/24 02:39:25;;;;;;;23.80;14.20;;;;;;;-1.88;75.22;95779.88;1735397;80;25725;-79
2021/12/24 02:41:51;;;;;;;22.15;13.72;;;;;;;-1.83;75.23;95768.78;1719120;82;25785;-82
2021/12/24 02:44:19;;;;;;;22.02;12.82;;;;;;;-1.79;75.27;95761.30;1719107;82;27372;-80
2021/12/24 02:54:54;;;;;;;24.12;13.45;;;;;;;-1.64;75.12;95722.52;1729923;81;25697;-81
2021/12/24 02:57:26;;;;;;;24.27;13.75;;;;;;;-1.60;75.12;95729.11;1748698;80;27419;-80
2021/12/24 03:00:00;;;;;;;20.72;13.08;;;;;;;-1.60;75.17;95729.11;1748300;81;25682;-82
2021/12/24 03:02:17;;;;;;;21.23;12.15;;;;;;;-1.60;75.15;95715.88;1736185;81;25705;-82
2021/12/24 03:04:44;;;;;;;20.37;12.63;;;;;;;-1.58;75.12;95711.24;1738162;81;26346;-80
2021/12/24 03:07:11;;;;;;;23.75;14.78;;;;;;;-1.55;75.22;95718.30;1738120;81;25781;-80
2021/12/24 03:09:37;;;;;;;21.57;13.60;;;;;;;-1.52;75.35;95703.90;1738234;81;28174;-82
2021/12/24 03:12:05;;;;;;;20.92;12.40;;;;;;;-1.48;75.49;95705.20;1737962;81;26162;-80
2021/12/24 03:14:32;;;;;;;24.23;13.22;;;;;;;-1.45;75.48;95707.50;1738145;81;26312;-81
2021/12/24 03:17:01;;;;;;;20.25;13.15;;;;;;;-1.44;75.51;95686.62;1736746;81;26457;-79
2021/12/24 03:19:31;;;;;;;22.75;13.78;;;;;;;-1.41;75.51;95692.06;1737983;81;25410;-81
2021/12/24 03:22:01;;;;;;;20.72;11.80;;;;;;;-1.40;75.43;95678.66;1737732;81;27391;-80
2021/12/24 03:26:52;;;;;;;19.30;11.78;;;;;;;-1.33;75.45;95672.16;1738120;81;26309;-81
2021/12/24 03:29:19;;;;;;;19.50;12.18;;;;;;;-1.33;75.53;95662.39;1738089;81;26460;-79
2021/12/24 03:31:47;;;;;;;18.57;11.80;;;;;;;-1.29;75.54;95669.45;1738080;81;25782;-80
2021/12/24 03:34:18;;;;;;;17.62;11.78;;;;;;;-1.27;75.44;95682.83;1738053;81;27376;-82
2021/12/24 03:36:45;;;;;;;19.80;12.43;;;;;;;-1.22;75.54;95667.24;1737919;81;25747;-81
2021/12/24 03:39:12;;;;;;;21.02;12.10;;;;;;;-1.19;75.50;95664.21;1738038;81;25680;-82
2021/12/24 03:41:40;;;;;;;18.90;11.70;;;;;;;-1.16;75.34;95656.41;1738031;81;26566;-80
2021/12/24 03:44:09;;;;;;;18.92;11.45;;;;;;;-1.14;75.33;95651.27;1738040;81;25249;-82
2021/12/24 03:46:55;;;;;;;19.30;11.83;;;;;;;-1.09;75.30;95658.67;1737478;81;27414;-82
2021/12/24 03:49:14;;;;;;;15.78;10.65;;;;;;;-1.04;75.26;95677.97;1731842;81;26672;-80
2021/12/24 03:56:54;;;;;;;16.15;9.88;;;;;;;-0.98;75.44;95666.67;1737849;81;26196;-82
2021/12/24 03:59:20;;;;;;;15.98;9.68;;;;;;;-0.96;75.30;95685.31;1736894;81;27412;-80
2021/12/24 04:01:47;;;;;;;17.73;11.25;;;;;;;-0.93;75.32;95663.77;1734339;81;26446;-81
2021/12/24 04:04:14;;;;;;;17.57;11.20;;;;;;;-0.92;75.37;95654.00;1732533;81;25785;-81
2021/12/24 04:06:41;;;;;;;19.55;10.43;;;;;;;-0.89;75.52;95660.27;1732438;81;26431;-82
2021/12/24 04:09:09;;;;;;;16.30;10.58;;;;;;;-0.85;75.58;95662.88;1732576;81;25774;-84
2021/12/24 04:11:38;;;;;;;18.45;10.78;;;;;;;-0.88;75.68;95655.29;1724882;81;27375;-81
2021/12/24 04:14:04;;;;;;;17.15;10.20;;;;;;;-0.86;75.54;95660.73;1715160;82;27262;-80
2021/12/24 04:16:31;;;;;;;17.42;10.40;;;;;;;-0.85;75.63;95649.13;1715166;82;25827;-81
2021/12/24 04:26:54;;;;;;;16.73;10.58;;;;;;;-0.77;75.71;95652.17;1715129;82;25735;-80
2021/12/24 04:29:20;;;;;;;17.32;11.25;;;;;;;-0.74;75.67;95653.14;1715324;82;25723;-83
2021/12/24 04:31:55;;;;;;;15.90;10.18;;;;;;;-0.75;75.61;95645.70;1725046;81;25723;-82
2021/12/24 04:34:16;;;;;;;18.15;10.15;;;;;;;-0.72;75.63;95643.16;1731356;81;25714;-80
2021/12/24 04:37:11;;;;;;;16.93;11.15;;;;;;;-0.69;75.71;95650.74;1732790;81;28167;-83
2021/12/24 04:51:00;;;;;;;15.88;10.20;;;;;;;-0.66;75.55;95638.45;1728463;81;26085;-80
2021/12/24 04:52:49;;;;;;;14.93;9.58;;;;;;;-0.56;75.73;95627.06;1732261;81;26344;-80
2021/12/24 05:03:06;;;;;;;15.05;9.03;;;;;;;-0.48;75.78;95632.74;1737617;81;27439;-81
2021/12/24 05:05:50;;;;;;;15.85;9.28;;;;;;;-0.45;75.78;95631.88;1737676;81;25789;-83
2021/12/24 05:08:19;;;;;;;14.53;9.18;;;;;;;-0.45;75.78;95625.25;1737626;81;25762;-80
2021/12/24 05:10:44;;;;;;;15.55;8.78;;;;;;;-0.44;75.83;95630.88;1737523;81;25876;-80
2021/12/24 05:13:14;;;;;;;15.20;8.70;;;;;;;-0.41;75.74;95630.51;1738219;81;25701;-80
2021/12/24 05:15:43;;;;;;;14.38;8.75;;;;;;;-0.38;75.89;95624.84;1738188;81;28215;-80
2021/12/24 05:23:42;;;;;;;15.23;8.28;;;;;;;-0.27;76.03;95613.42;1738151;81;25876;-82
2021/12/24 05:26:10;;;;;;;20.20;11.57;;;;;;;-0.26;76.05;95620.38;1738129;81;25702;-82
2021/12/24 05:28:38;;;;;;;22.02;12.45;;;;;;;-0.27;76.20;95617.41;1738061;81;28222;-81
2021/12/24 05:31:05;;;;;;;23.47;12.37;;;;;;;-0.28;76.26;95612.60;1738018;81;25765;-81
2021/12/24 05:33:32;;;;;;;18.48;10.93;;;;;;;-0.25;76.32;95622.84;1738165;81;25758;-81
2021/12/24 05:35:58;;;;;;;17.70;10.20;;;;;;;-0.21;76.37;95612.16;1712845;82;26336;-80
2021/12/24 05:38:25;;;;;;;23.27;11.97;;;;;;;-0.16;76.39;95605.80;1738096;81;25693;-81
2021/12/24 05:40:51;;;;;;;19.02;10.90;;;;;;;-0.14;76.36;95602.45;1738194;81;27360;-79
2021/12/24 05:43:18;;;;;;;16.35;9.30;;;;;;;-0.14;76.44;95598.98;1738099;81;25755;-81
2021/12/24 05:45:45;;;;;;;13.78;9.18;;;;;;;-0.10;76.50;95600.22;1738084;81;25802;-83
2021/12/24 05:48:12;;;;;;;15.45;8.93;;;;;;;-0.08;76.52;95595.05;1738120;81;26447;-80
2021/12/24 05:50:38;;;;;;;11.25;7.50;;;;;;;-0.05;76.54;95595.19;1738174;82;25758;-80
2021/12/24 05:53:05;;;;;;;13.20;8.40;;;;;;;-0.02;76.62;95590.84;1738181;81;27362;-80
2021/12/24 05:55:32;;;;;;;14.63;9.15;;;;;;;0.03;76.59;95587.59;1738052;81;25812;-81
2021/12/24 05:57:59;;;;;;;13.05;8.20;;;;;;;0.06;76.57;95582.73;1738059;81;25647;-80
2021/12/24 06:00:26;;;;;;;13.90;8.80;;;;;;;0.09;76.60;95594.30;1737930;82;25820;-81
2021/12/24 06:02:53;;;;;;;17.80;10.18;;;;;;;0.12;76.62;95603.19;1733838;82;25750;-80
2021/12/24 06:05:19;;;;;;;15.32;9.83;;;;;;;0.15;76.51;95597.50;1732654;82;27235;-80
2021/12/24 06:07:46;;;;;;;12.43;7.40;;;;;;;0.18;76.63;95594.48;1732522;81;26068;-80
2021/12/24 06:10:12;;;;;;;18.20;10.25;;;;;;;0.18;76.63;95597.13;1732616;81;25678;-81
2021/12/24 06:12:39;;;;;;;13.45;8.28;;;;;;;0.22;76.61;95599.72;1732318;81;25777;-80
2021/12/24 06:15:08;;;;;;;10.98;7.90;;;;;;;0.25;76.74;95600.65;1732631;82;25757;-81
2021/12/24 06:17:37;;;;;;;14.20;7.75;;;;;;;0.28;76.73;95596.30;1732639;81;27396;-80
2021/12/24 06:20:06;;;;;;;15.03;8.63;;;;;;;0.32;76.68;95598.06;1732560;81;25986;-80
2021/12/24 06:22:33;;;;;;;14.58;8.98;;;;;;;0.35;76.74;95605.66;1732625;81;25765;-80
2021/12/24 06:25:00;;;;;;;11.85;7.83;;;;;;;0.38;76.71;95600.44;1732659;81;26523;-80
2021/12/24 06:27:26;;;;;;;14.58;8.80;;;;;;;0.39;76.73;95596.78;1732676;82;25682;-80
2021/12/24 06:29:53;;;;;;;13.40;8.20;;;;;;;0.39;76.87;95593.62;1732524;81;27583;-80
2021/12/24 06:32:19;;;;;;;25.65;11.73;;;;;;;0.41;76.75;95604.05;1732470;81;25762;-80
2021/12/24 06:34:48;;;;;;;33.65;14.18;;;;;;;0.44;76.83;95606.33;1732618;81;25811;-80
2021/12/24 06:37:15;;;;;;;34.90;14.93;;;;;;;0.45;76.96;95603.98;1732618;81;26371;-80
2021/12/24 06:39:42;;;;;;;29.50;13.45;;;;;;;0.46;77.05;95607.78;1732654;81;25744;-80
2021/12/24 06:42:09;;;;;;;29.77;13.78;;;;;;;0.47;77.12;95607.28;1732624;82;27416;-80
2021/12/24 06:44:36;;;;;;;36.83;16.55;;;;;;;0.50;77.19;95598.91;1732466;81;25817;-80
2021/12/24 06:47:04;;;;;;;26.65;12.98;;;;;;;0.52;77.30;95614.96;1732460;81;25300;-80
2021/12/24 06:49:31;;;;;;;21.17;11.30;;;;;;;0.55;77.34;95613.76;1732567;81;25680;-80
2021/12/24 06:51:58;;;;;;;23.00;14.07;;;;;;;0.56;77.26;95611.42;1732670;81;25801;-80
2021/12/24 06:54:24;;;;;;;30.95;16.87;;;;;;;0.55;77.36;95616.41;1732605;81;27423;-80
2021/12/24 06:56:51;;;;;;;27.77;11.95;;;;;;;0.54;77.42;95613.45;1732435;81;25279;-80
2021/12/24 06:59:18;;;;;;;26.93;13.22;;;;;;;0.60;77.46;95620.15;1732659;81;25758;-80
2021/12/24 07:01:45;;;;;;;22.02;12.70;;;;;;;0.62;77.51;95617.27;1733217;82;25911;-81
2021/12/24 07:04:11;;;;;;;25.08;13.55;;;;;;;0.64;77.63;95620.56;1736539;81;25643;-80
2021/12/24 07:06:45;;;;;;;42.88;18.12;;;;;;;0.67;77.66;95614.88;1738029;81;27581;-80
2021/12/24 07:09:07;;;;;;;46.45;19.65;;;;;;;0.67;77.70;95614.88;1736819;81;25690;-81
2021/12/24 07:11:34;;;;;;;56.08;23.00;;;;;;;0.70;77.76;95617.15;1738136;81;25683;-80
2021/12/24 07:14:00;;;;;;;45.17;21.73;;;;;;;0.73;77.82;95619.39;1738101;81;25841;-79
2021/12/24 07:16:27;;;;;;;41.00;19.65;;;;;;;0.78;77.86;95621.48;1735587;81;25722;-80
2021/12/24 07:18:53;;;;;;;21.52;12.55;;;;;;;0.79;77.86;95615.98;1728623;81;28353;-80
2021/12/24 07:21:20;;;;;;;22.27;12.98;;;;;;;0.83;77.89;95614.59;1708557;82;25726;-81
2021/12/24 07:23:46;;;;;;;24.27;12.82;;;;;;;0.86;77.90;95619.48;1708628;83;25812;-80
2021/12/24 07:26:13;;;;;;;37.25;18.77;;;;;;;0.89;77.98;95620.43;1708524;82;26867;-79
2021/12/24 07:28:40;;;;;;;46.48;21.80;;;;;;;0.95;78.11;95618.34;1708505;82;25688;-80
2021/12/24 07:31:07;;;;;;;29.30;12.58;;;;;;;0.99;78.05;95619.56;1708551;82;27200;-80
2021/12/24 07:33:33;;;;;;;40.28;17.12;;;;;;;1.01;78.07;95617.55;1708459;83;25755;-80
2021/12/24 07:36:00;;;;;;;26.40;12.80;;;;;;;1.04;78.00;95615.83;1722504;81;25672;-80
2021/12/24 07:38:27;;;;;;;26.52;12.58;;;;;;;1.08;78.07;95618.42;1737627;81;26168;-80
2021/12/24 07:40:53;;;;;;;31.70;14.07;;;;;;;1.11;78.00;95625.16;1729626;82;26052;-80
2021/12/24 07:43:20;;;;;;;35.85;16.15;;;;;;;1.13;77.98;95616.99;1737685;81;27415;-81
2021/12/24 07:45:49;;;;;;;29.20;13.50;;;;;;;1.15;78.12;95614.97;1737688;81;25805;-81
2021/12/24 07:48:26;;;;;;;27.80;13.20;;;;;;;1.18;78.19;95609.27;1716299;82;25711;-81
2021/12/24 07:53:17;;;;;;;28.07;13.28;;;;;;;1.24;78.18;95593.84;1708528;82;25798;-82
2021/12/24 07:55:44;;;;;;;24.30;12.25;;;;;;;1.26;78.25;95589.16;1716623;82;28184;-82
2021/12/24 07:58:14;;;;;;;23.98;11.85;;;;;;;1.30;78.21;95601.86;1708870;82;25747;-81
2021/12/24 08:00:41;;;;;;;14.78;7.83;;;;;;;1.33;78.22;95604.61;1737218;81;25493;-81
2021/12/24 08:03:08;;;;;;;15.45;8.08;;;;;;;1.36;78.20;95601.56;1734572;82;25911;-80
2021/12/24 08:05:39;;;;;;;19.35;9.68;;;;;;;1.39;78.26;95602.00;1728714;81;25281;-81
2021/12/24 08:08:09;;;;;;;24.45;10.13;;;;;;;1.42;78.26;95609.59;1729332;81;27422;-81
2021/12/24 08:10:37;;;;;;;34.92;15.32;;;;;;;1.46;78.20;95609.98;1732336;81;25958;-81
2021/12/24 08:13:05;;;;;;;38.60;15.50;;;;;;;1.48;78.25;95605.30;1728869;81;25682;-80
2021/12/24 08:15:32;;;;;;;25.27;12.23;;;;;;;1.53;78.22;95604.20;1732398;81;25890;-81
2021/12/24 08:17:58;;;;;;;28.10;12.70;;;;;;;1.57;78.21;95600.11;1732435;82;25729;-81
2021/12/24 08:20:26;;;;;;;18.95;8.55;;;;;;;1.63;78.19;95600.66;1732346;81;27512;-82
2021/12/24 08:22:54;;;;;;;14.80;7.05;;;;;;;1.66;78.15;95598.11;1724253;82;25687;-82
2021/12/24 08:25:23;;;;;;;12.13;6.50;;;;;;;1.71;78.11;95613.77;1732405;82;25819;-81
2021/12/24 08:27:50;;;;;;;10.40;5.20;;;;;;;1.76;78.07;95604.69;1732341;81;26635;-88
2021/12/24 08:30:17;;;;;;;24.95;10.25;;;;;;;1.80;78.03;95601.95;1728408;82;26375;-81
2021/12/24 08:32:44;;;;;;;11.35;6.62;;;;;;;1.86;77.99;95597.64;1730572;81;28022;-81
2021/12/24 08:35:15;;;;;;;10.18;6.62;;;;;;;1.92;77.91;95593.38;1731360;81;26090;-81
2021/12/24 08:37:42;;;;;;;10.98;7.25;;;;;;;1.95;77.83;95583.13;1726438;81;25670;-82
2021/12/24 08:40:10;;;;;;;7.30;4.78;;;;;;;2.00;77.76;95597.17;1725619;82;25845;-82
2021/12/24 08:42:37;;;;;;;13.13;6.90;;;;;;;2.02;77.69;95599.94;1716178;81;25700;-82
2021/12/24 08:45:05;;;;;;;12.58;5.92;;;;;;;2.06;77.62;95606.48;1703370;82;27400;-82
2021/12/24 08:47:32;;;;;;;12.70;6.25;;;;;;;2.11;77.58;95600.56;1703202;82;25788;-82
2021/12/24 08:49:59;;;;;;;14.23;7.97;;;;;;;2.14;77.50;95592.17;1703413;82;25917;-82
2021/12/24 08:52:25;;;;;;;18.27;9.00;;;;;;;2.17;77.42;95590.45;1702577;82;25851;-82
2021/12/24 08:54:52;;;;;;;24.45;12.28;;;;;;;2.21;77.50;95592.99;1721372;82;25809;-83
2021/12/24 08:57:19;;;;;;;24.65;12.82;;;;;;;2.28;77.45;95597.01;1731880;81;28080;-83
2021/12/24 08:59:45;;;;;;;20.08;10.78;;;;;;;2.30;77.36;95601.08;1731770;81;25800;-82
2021/12/24 09:02:12;;;;;;;19.77;9.73;;;;;;;2.33;77.29;95601.19;1731917;81;25762;-81
2021/12/24 09:04:39;;;;;;;17.87;8.58;;;;;;;2.35;77.30;95599.15;1731750;81;25787;-82
2021/12/24 09:07:05;;;;;;;12.75;7.78;;;;;;;2.35;77.25;95599.15;1731659;81;25686;-81
2021/12/24 09:09:32;;;;;;;20.25;10.58;;;;;;;2.36;77.27;95593.63;1732053;81;27544;-82
2021/12/24 09:11:58;;;;;;;18.10;9.53;;;;;;;2.39;77.28;95590.56;1732326;81;25751;-82
2021/12/24 09:14:26;;;;;;;10.48;6.33;;;;;;;2.41;77.28;95583.19;1732124;81;25742;-81
2021/12/24 09:16:53;;;;;;;9.80;6.00;;;;;;;2.44;77.23;95576.10;1732704;81;26583;-82
2021/12/24 09:19:24;;;;;;;19.35;9.40;;;;;;;2.47;77.26;95574.37;1732714;81;25758;-81
2021/12/24 09:21:48;;;;;;;23.65;10.93;;;;;;;2.49;77.23;95579.49;1732258;81;27366;-82
2021/12/24 09:24:17;;;;;;;15.95;8.33;;;;;;;2.51;77.18;95572.94;1732308;81;25827;-82
2021/12/24 09:26:43;;;;;;;14.05;9.08;;;;;;;2.50;77.16;95575.30;1732571;81;25245;-84
2021/12/24 09:29:11;;;;;;;12.45;7.35;;;;;;;2.58;77.20;95574.77;1709143;82;26380;-82
2021/12/24 09:31:39;;;;;;;14.18;7.40;;;;;;;2.64;77.28;95568.62;1794321;79;25725;-85
2021/12/24 09:34:06;;;;;;;35.08;20.57;;;;;;;2.67;77.13;95560.20;1792376;78;27407;-83
2021/12/24 09:36:32;;;;;;;63.15;33.73;;;;;;;2.69;77.08;95554.16;1793916;79;25819;-82
2021/12/24 09:39:03;;;;;;;22.05;10.48;;;;;;;2.72;77.02;95551.91;1794735;79;25755;-82
2021/12/24 09:41:30;;;;;;;16.85;9.15;;;;;;;2.74;77.03;95550.37;1794664;79;25777;-83
2021/12/24 09:43:59;;;;;;;15.05;8.48;;;;;;;2.76;77.03;95548.33;1794838;79;25661;-82
2021/12/24 09:46:27;;;;;;;13.28;7.33;;;;;;;2.79;76.96;95543.38;1794809;79;27370;-83
2021/12/24 09:48:54;;;;;;;16.87;8.08;;;;;;;2.82;76.91;95527.49;1794575;79;25800;-81
2021/12/24 09:51:26;;;;;;;13.88;8.55;;;;;;;2.85;76.90;95526.57;1788799;79;25791;-81
2021/12/24 09:53:55;;;;;;;15.55;7.83;;;;;;;2.88;76.87;95522.16;1763324;80;25792;-85
2021/12/24 09:56:24;;;;;;;11.30;6.42;;;;;;;2.89;76.84;95530.47;1737233;81;43930;-81
2021/12/24 09:58:50;;;;;;;15.58;7.83;;;;;;;2.91;76.82;95528.89;1762968;81;27402;-81
2021/12/24 10:01:37;;;;;;;22.93;11.80;;;;;;;2.94;76.81;95519.67;1763224;80;25279;-80
2021/12/24 10:04:09;;;;;;;20.68;9.28;;;;;;;2.93;76.83;95522.84;1763074;80;25697;-80
2021/12/24 10:06:38;;;;;;;14.60;7.97;;;;;;;2.96;76.83;95517.62;1761954;81;32364;-80
2021/12/24 10:09:12;;;;;;;15.93;8.70;;;;;;;2.97;76.82;95524.08;1763302;80;25745;-80
2021/12/24 10:11:48;;;;;;;20.05;9.50;;;;;;;3.02;76.86;95526.13;1763249;81;27425;-81
2021/12/24 10:14:16;;;;;;;18.25;9.55;;;;;;;3.01;76.84;95514.64;1763249;80;25256;-81
2021/12/24 10:16:46;;;;;;;30.72;15.90;;;;;;;3.01;76.83;95527.15;1763277;81;25772;-81
2021/12/24 10:19:14;;;;;;;23.27;11.97;;;;;;;3.03;76.89;95526.40;1778532;79;25793;-80
2021/12/24 10:21:42;;;;;;;24.40;12.75;;;;;;;3.05;76.91;95527.84;1740648;82;25792;-80
2021/12/24 10:24:19;;;;;;;36.35;15.88;;;;;;;3.07;76.91;95507.13;1741017;81;27641;-81
2021/12/24 10:26:51;;;;;;;26.20;13.28;;;;;;;3.09;76.91;95503.73;1740900;82;25854;-81
2021/12/24 10:29:22;;;;;;;34.40;14.87;;;;;;;3.11;76.93;95495.02;1740428;81;25761;-81
2021/12/24 10:31:56;;;;;;;21.42;10.65;;;;;;;3.13;76.95;95490.30;1738764;81;35215;-82
2021/12/24 10:34:35;;;;;;;18.92;10.65;;;;;;;3.17;76.97;95497.34;1782540;79;25657;-83
2021/12/24 10:37:23;;;;;;;14.20;8.95;;;;;;;3.18;76.97;95498.46;1794236;79;27400;-82
2021/12/24 10:39:59;;;;;;;18.37;9.35;;;;;;;3.19;77.02;95488.10;1744043;79;25733;-84
2021/12/24 10:42:37;;;;;;;15.55;8.18;;;;;;;3.21;77.05;95487.38;1789930;79;25924;-82
2021/12/24 10:45:09;;;;;;;21.70;9.38;;;;;;;3.23;77.00;95477.33;1794271;79;26500;-83
2021/12/24 10:47:40;;;;;;;22.13;9.65;;;;;;;3.25;76.99;95485.12;1784421;79;28323;-82
2021/12/24 10:55:38;;;;;;;15.88;7.53;;;;;;;3.29;77.03;95480.16;1794036;79;25737;-86
2021/12/24 10:58:09;;;;;;;12.47;6.60;;;;;;;3.31;76.99;95484.25;1793633;79;25740;-84
2021/12/24 11:00:42;;;;;;;12.37;7.10;;;;;;;3.34;77.01;95478.50;1793301;79;25678;-87
2021/12/24 11:03:22;;;;;;;18.35;8.30;;;;;;;3.37;77.03;95478.08;1773702;79;28315;-85
2021/12/24 11:05:54;;;;;;;12.33;6.78;;;;;;;3.40;77.01;95475.48;1800359;78;25754;-84
2021/12/24 11:08:24;;;;;;;17.27;7.92;;;;;;;3.44;77.02;95466.03;1803810;78;25812;-86
2021/12/24 11:10:55;;;;;;;18.37;9.58;;;;;;;3.46;77.01;95469.31;1792906;78;25727;-85
2021/12/24 11:13:39;;;;;;;20.35;9.43;;;;;;;3.50;77.00;95467.86;1723903;82;25730;-86
2021/12/24 11:16:10;;;;;;;15.93;7.62;;;;;;;3.51;77.02;95470.28;1748083;80;27398;-85
2021/12/24 11:18:41;;;;;;;13.55;7.40;;;;;;;3.55;77.02;95484.02;1723095;82;26422;-85
2021/12/24 11:21:14;;;;;;;12.63;6.72;;;;;;;3.54;77.00;95495.20;1708732;83;25766;-85
2021/12/24 11:23:42;;;;;;;17.15;8.48;;;;;;;3.59;77.07;95477.23;1714698;83;25854;-85
2021/12/24 11:26:12;;;;;;;12.85;8.03;;;;;;;3.62;77.06;95465.59;1718325;81;25654;-85
2021/12/24 11:28:40;;;;;;;9.10;6.37;;;;;;;3.65;77.07;95457.69;1701305;83;28247;-87
2021/12/24 11:31:14;;;;;;;8.70;5.40;;;;;;;3.70;77.09;95453.87;1743696;81;25969;-85
2021/12/24 11:33:43;;;;;;;10.18;7.17;;;;;;;3.75;77.11;95444.67;1709394;82;25803;-85
2021/12/24 11:36:14;;;;;;;8.40;5.12;;;;;;;3.79;77.09;95438.39;1710945;81;25793;-86
2021/12/24 11:38:48;;;;;;;8.13;5.03;;;;;;;3.81;77.05;95447.83;1749511;80;26378;-85
2021/12/24 11:41:17;;;;;;;9.38;5.37;;;;;;;3.85;77.06;95438.36;1732907;80;27374;-85
2021/12/24 11:43:48;;;;;;;9.53;5.70;;;;;;;3.91;77.02;95442.82;1719949;80;25874;-85
2021/12/24 11:46:18;;;;;;;9.23;5.92;;;;;;;3.93;77.01;95451.43;1721760;81;25753;-85
2021/12/24 11:48:51;;;;;;;8.75;5.12;;;;;;;3.96;76.99;95440.33;1743505;81;25839;-86
2021/12/24 11:51:20;;;;;;;13.10;6.92;;;;;;;3.99;76.94;95443.05;1723727;81;25780;-85
2021/12/24 11:53:49;;;;;;;8.65;5.10;;;;;;;4.03;76.92;95438.11;1744275;80;27677;-85
2021/12/24 11:56:19;;;;;;;11.03;6.33;;;;;;;4.07;76.90;95447.32;1724455;82;25745;-85
2021/12/24 11:58:53;;;;;;;9.78;5.37;;;;;;;4.11;76.87;95440.48;1743426;80;25941;-85
2021/12/24 12:01:27;;;;;;;14.23;7.03;;;;;;;4.14;76.87;95446.22;1705523;81;25719;-86
2021/12/24 12:03:57;;;;;;;17.85;8.23;;;;;;;4.20;76.86;95433.86;1705143;82;25971;-85
2021/12/24 12:06:29;;;;;;;20.00;10.00;;;;;;;4.22;76.77;95435.28;1689304;83;27405;-86
2021/12/24 12:08:59;;;;;;;22.02;9.35;;;;;;;4.24;76.72;95435.03;1661818;84;25891;-85
2021/12/24 12:11:32;;;;;;;18.95;8.65;;;;;;;4.25;76.71;95432.15;1680456;83;25756;-85
2021/12/24 12:14:17;;;;;;;17.65;9.43;;;;;;;4.29;76.68;95429.86;1676980;83;25823;-85
2021/12/24 12:16:57;;;;;;;13.08;7.60;;;;;;;4.31;76.68;95435.80;1684126;83;25789;-84
2021/12/24 12:19:45;;;;;;;12.45;6.25;;;;;;;4.34;76.65;95432.70;1681580;83;27450;-84
2021/12/24 12:25:09;;;;;;;13.62;6.45;;;;;;;4.42;76.64;95434.26;1683419;85;25867;-83
2021/12/24 12:27:45;;;;;;;8.60;5.28;;;;;;;4.42;76.65;95425.73;1672811;83;26330;-84
2021/12/24 12:30:23;;;;;;;13.62;7.75;;;;;;;4.45;76.68;95415.94;1679757;83;25355;-84
2021/12/24 12:32:54;;;;;;;31.87;15.10;;;;;;;4.46;76.64;95403.41;1687228;83;28610;-84
2021/12/24 12:35:35;;;;;;;25.60;12.63;;;;;;;4.49;76.65;95411.77;1665232;84;25758;-83
2021/12/24 12:38:01;;;;;;;18.00;8.88;;;;;;;4.52;76.72;95405.17;1683632;83;25847;-84
2021/12/24 12:40:34;;;;;;;16.57;8.73;;;;;;;4.52;76.66;95399.83;1686137;83;25740;-83
2021/12/24 12:43:06;;;;;;;14.47;7.65;;;;;;;4.55;76.66;95400.21;1684939;83;25792;-85
2021/12/24 12:45:42;;;;;;;16.67;9.20;;;;;;;4.57;76.67;95399.47;1676772;83;27477;-86
2021/12/24 12:48:12;;;;;;;19.27;10.88;;;;;;;4.61;76.71;95411.84;1689671;83;25779;-83
2021/12/24 12:50:43;;;;;;;15.05;8.50;;;;;;;4.62;76.66;95427.66;1685221;83;25877;-84
2021/12/24 12:53:34;;;;;;;14.07;7.95;;;;;;;4.63;76.67;95421.28;1684924;84;25809;-83
2021/12/24 12:56:17;;;;;;;15.80;7.62;;;;;;;4.66;76.67;95432.88;1682268;85;25800;-85
2021/12/24 12:58:49;;;;;;;18.35;9.08;;;;;;;4.67;76.72;95437.18;1659424;85;28299;-83
2021/12/24 13:01:21;;;;;;;21.27;11.60;;;;;;;4.69;76.79;95426.27;1685332;83;25775;-84
2021/12/24 13:04:00;;;;;;;;;;;;;;;4.70;76.74;95434.07;1697200;81;25372;-85
2021/12/24 13:06:41;;;;;;;19.40;9.85;;;;;;;4.71;76.81;95426.84;1748876;80;25794;-84
2021/12/24 13:09:20;;;;;;;35.45;16.50;;;;;;;4.70;76.82;95427.39;1748253;80;25880;-84
2021/12/24 13:11:53;;;;;;;36.98;17.52;;;;;;;4.70;76.84;95419.89;1748985;80;30010;-85
2021/12/24 13:14:24;;;;;;;43.55;21.48;;;;;;;4.73;76.88;95421.27;1748962;80;25821;-84